createdAt,value
2019-05-01T00:00:30.487Z,13.97
2019-05-01T00:03:18.206Z,15.80
2019-05-01T00:05:52.322Z,15.87
2019-05-01T00:08:22.013Z,14.90
2019-05-01T00:10:51.532Z,15.77
2019-05-01T00:13:21.072Z,14.20
2019-05-01T00:15:51.750Z,15.20
2019-05-01T00:18:22.200Z,16.23
2019-05-01T00:20:52.527Z,16.80
2019-05-01T00:23:23.166Z,16.13
2019-05-01T00:25:52.871Z,14.50
2019-05-01T00:28:22.985Z,16.17
2019-05-01T00:30:53.354Z,16.83
2019-05-01T00:33:23.011Z,16.67
2019-05-01T00:35:52.964Z,15.87
2019-05-01T00:38:22.463Z,15.77
2019-05-01T00:40:52.679Z,15.30
2019-05-01T00:43:22.986Z,17.63
2019-05-01T00:45:53.266Z,15.70
2019-05-01T00:48:23.420Z,15.10
2019-05-01T00:50:53.556Z,16.90
2019-05-01T00:53:23.965Z,15.77
2019-05-01T00:56:01.235Z,15.77
2019-05-01T00:58:50.499Z,14.90
2019-05-01T01:01:39.721Z,15.67
2019-05-01T01:04:11.623Z,13.97
2019-05-01T01:06:41.898Z,13.83
2019-05-01T01:09:12.596Z,16.63
2019-05-01T01:11:42.290Z,17.00
2019-05-01T01:14:11.757Z,16.37
2019-05-01T01:16:41.915Z,15.13
2019-05-01T01:19:12.294Z,13.73
2019-05-01T01:21:43.009Z,15.60
2019-05-01T01:24:13.220Z,15.03
2019-05-01T01:26:43.558Z,15.40
2019-05-01T01:29:13.196Z,15.67
2019-05-01T01:31:43.372Z,14.97
2019-05-01T01:34:13.408Z,16.57
2019-05-01T01:36:42.932Z,15.83
2019-05-01T01:39:13.097Z,15.13
2019-05-01T01:41:42.852Z,15.43
2019-05-01T01:44:18.930Z,15.83
2019-05-01T01:46:49.808Z,14.97
2019-05-01T01:49:20.141Z,15.73
2019-05-01T01:51:49.853Z,17.07
2019-05-01T01:54:20.071Z,16.13
2019-05-01T01:56:50.732Z,17.33
2019-05-01T01:59:21.530Z,15.87
2019-05-01T02:02:01.597Z,16.90
2019-05-01T02:04:57.034Z,15.40
2019-05-01T02:07:27.352Z,15.73
2019-05-01T02:09:57.512Z,15.70
2019-05-01T02:12:27.194Z,16.63
2019-05-01T02:14:56.724Z,16.90
2019-05-01T02:17:26.883Z,14.77
2019-05-01T02:19:57.638Z,15.43
2019-05-01T02:22:27.381Z,17.70
2019-05-01T02:24:56.894Z,16.10
2019-05-01T02:27:34.228Z,15.57
2019-05-01T02:30:06.437Z,16.83
2019-05-01T02:32:36.624Z,15.03
2019-05-01T02:35:06.237Z,14.70
2019-05-01T02:37:36.318Z,16.67
2019-05-01T02:40:25.962Z,15.23
2019-05-01T02:42:58.282Z,13.70
2019-05-01T02:45:30.283Z,13.27
2019-05-01T02:48:01.806Z,15.20
2019-05-01T02:50:34.239Z,15.23
2019-05-01T02:53:04.582Z,14.50
2019-05-01T02:55:40.599Z,13.87
2019-05-01T02:58:11.907Z,15.03
2019-05-01T03:00:42.850Z,15.23
2019-05-01T03:03:13.293Z,15.77
2019-05-01T03:05:42.965Z,13.37
2019-05-01T03:08:13.118Z,14.87
2019-05-01T03:10:42.997Z,14.75
2019-05-01T03:13:13.284Z,16.30
2019-05-01T03:15:43.030Z,17.17
2019-05-01T03:18:27.970Z,13.70
2019-05-01T03:21:10.662Z,14.43
2019-05-01T03:23:51.634Z,14.60
2019-05-01T03:26:21.957Z,16.10
2019-05-01T03:28:52.227Z,15.03
2019-05-01T03:31:22.739Z,16.77
2019-05-01T03:33:52.926Z,16.63
2019-05-01T03:36:23.365Z,16.83
2019-05-01T03:38:53.768Z,14.73
2019-05-01T03:41:24.336Z,16.00
2019-05-01T03:43:54.667Z,15.87
2019-05-01T03:46:25.689Z,16.57
2019-05-01T03:48:55.463Z,17.07
2019-05-01T03:51:25.694Z,17.10
2019-05-01T03:53:56.364Z,15.97
2019-05-01T03:56:27.444Z,15.77
2019-05-01T03:58:57.790Z,17.20
2019-05-01T04:01:46.446Z,17.97
2019-05-01T04:04:19.745Z,16.77
2019-05-01T04:06:50.275Z,17.20
2019-05-01T04:09:20.269Z,16.73
2019-05-01T04:11:49.964Z,17.10
2019-05-01T04:14:20.238Z,15.47
2019-05-01T04:16:54.525Z,16.50
2019-05-01T04:19:24.953Z,15.83
2019-05-01T04:22:03.659Z,18.73
2019-05-01T04:24:33.712Z,18.63
2019-05-01T04:27:05.492Z,18.80
2019-05-01T04:29:48.674Z,18.13
2019-05-01T04:32:24.090Z,19.13
2019-05-01T04:35:22.270Z,19.30
2019-05-01T04:37:53.887Z,16.73
2019-05-01T04:40:24.124Z,18.20
2019-05-01T04:42:54.192Z,16.87
2019-05-01T04:45:24.638Z,17.60
2019-05-01T04:47:54.625Z,16.40
2019-05-01T04:50:24.518Z,19.13
2019-05-01T04:52:54.879Z,18.73
2019-05-01T04:55:24.783Z,16.67
2019-05-01T04:57:54.859Z,16.90
2019-05-01T05:00:24.944Z,18.10
2019-05-01T05:03:05.542Z,18.97
2019-05-01T05:05:35.108Z,18.40
2019-05-01T05:08:04.897Z,19.00
2019-05-01T05:10:34.864Z,19.10
2019-05-01T05:13:14.453Z,18.40
2019-05-01T05:15:52.121Z,19.97
2019-05-01T05:18:21.492Z,22.53
2019-05-01T05:20:52.113Z,20.67
2019-05-01T05:23:22.476Z,22.03
2019-05-01T05:25:53.156Z,23.87
2019-05-01T05:28:24.112Z,26.47
2019-05-01T05:30:56.558Z,25.40
2019-05-01T05:33:30.036Z,26.60
2019-05-01T05:36:01.633Z,27.67
2019-05-01T05:38:40.413Z,26.90
2019-05-01T05:41:10.936Z,26.87
2019-05-01T05:43:41.163Z,29.43
2019-05-01T05:46:11.132Z,26.57
2019-05-01T05:48:41.316Z,26.33
2019-05-01T05:51:35.592Z,28.83
2019-05-01T05:54:14.364Z,26.27
2019-05-01T05:56:51.804Z,25.90
2019-05-01T05:59:26.676Z,25.53
2019-05-01T06:02:03.984Z,26.23
2019-05-01T06:04:56.507Z,26.10
2019-05-01T06:08:01.349Z,27.23
2019-05-01T06:10:53.533Z,27.60
2019-05-01T06:13:42.768Z,27.40
2019-05-01T06:16:31.821Z,27.20
2019-05-01T06:19:17.671Z,26.77
2019-05-01T06:22:10.025Z,29.03
2019-05-01T06:24:42.073Z,29.60
2019-05-01T06:27:13.725Z,30.87
2019-05-01T06:29:43.661Z,31.10
2019-05-01T06:32:12.969Z,30.30
2019-05-01T06:34:42.861Z,28.57
2019-05-01T06:37:13.192Z,29.80
2019-05-01T06:39:47.872Z,31.17
2019-05-01T06:42:16.943Z,31.73
2019-05-01T06:44:52.275Z,31.50
2019-05-01T06:47:38.201Z,30.60
2019-05-01T06:50:24.152Z,31.13
2019-05-01T06:52:54.260Z,30.93
2019-05-01T06:55:27.298Z,31.80
2019-05-01T06:57:56.380Z,29.77
2019-05-01T07:00:26.344Z,30.80
2019-05-01T07:02:57.316Z,30.80
2019-05-01T07:05:27.989Z,31.73
2019-05-01T07:07:58.271Z,30.50
2019-05-01T07:10:31.691Z,32.50
2019-05-01T07:12:59.807Z,31.70
2019-05-01T07:15:30.638Z,32.93
2019-05-01T07:18:00.970Z,32.67
2019-05-01T07:20:51.850Z,32.63
2019-05-01T07:23:22.160Z,31.63
2019-05-01T07:25:52.013Z,33.33
2019-05-01T07:28:23.005Z,31.70
2019-05-01T07:30:56.716Z,31.00
2019-05-01T07:33:26.312Z,31.17
2019-05-01T07:35:55.640Z,33.23
2019-05-01T07:38:25.216Z,29.27
2019-05-01T07:40:54.647Z,32.10
2019-05-01T07:43:44.763Z,32.40
2019-05-01T07:46:33.281Z,31.33
2019-05-01T07:49:02.872Z,30.93
2019-05-01T07:51:32.528Z,30.47
2019-05-01T07:54:04.107Z,30.57
2019-05-01T07:56:33.609Z,31.77
2019-05-01T07:59:03.680Z,31.17
2019-05-01T08:01:44.429Z,31.83
2019-05-01T08:04:18.401Z,33.30
2019-05-01T08:06:45.585Z,31.47
2019-05-01T08:09:16.262Z,32.10
2019-05-01T08:11:45.783Z,30.83
2019-05-01T08:14:16.563Z,29.17
2019-05-01T08:16:46.577Z,30.73
2019-05-01T08:19:34.693Z,30.30
2019-05-01T08:22:06.728Z,30.53
2019-05-01T08:24:36.708Z,32.10
2019-05-01T08:27:08.824Z,30.70
2019-05-01T08:29:57.979Z,34.50
2019-05-01T08:32:55.832Z,30.00
2019-05-01T08:35:26.164Z,33.27
2019-05-01T08:37:58.412Z,28.83
2019-05-01T08:40:27.073Z,30.50
2019-05-01T08:42:57.148Z,31.03
2019-05-01T08:45:43.360Z,31.13
2019-05-01T08:48:35.763Z,30.60
2019-05-01T08:51:02.701Z,29.60
2019-05-01T08:53:32.544Z,31.67
2019-05-01T08:56:01.952Z,29.00
2019-05-01T08:58:31.668Z,32.13
2019-05-01T09:01:01.518Z,29.97
2019-05-01T09:03:31.414Z,31.23
2019-05-01T09:06:01.317Z,33.33
2019-05-01T09:08:32.057Z,32.03
2019-05-01T09:11:02.448Z,34.17
2019-05-01T09:13:32.433Z,31.73
2019-05-01T09:16:01.793Z,32.40
2019-05-01T09:18:31.024Z,33.90
2019-05-01T09:21:00.653Z,29.77
2019-05-01T09:23:30.028Z,33.17
2019-05-01T09:26:15.905Z,32.47
2019-05-01T09:28:47.327Z,32.43
2019-05-01T09:31:18.880Z,32.87
2019-05-01T09:33:48.292Z,32.37
2019-05-01T09:36:18.071Z,33.23
2019-05-01T09:38:49.984Z,32.53
2019-05-01T09:41:18.909Z,30.80
2019-05-01T09:43:48.835Z,30.20
2019-05-01T09:46:18.638Z,31.77
2019-05-01T09:48:48.354Z,29.77
2019-05-01T09:51:27.648Z,33.83
2019-05-01T09:54:09.361Z,32.60
2019-05-01T09:56:38.487Z,28.83
2019-05-01T09:59:12.636Z,31.47
2019-05-01T10:01:40.120Z,29.60
2019-05-01T10:04:09.487Z,31.87
2019-05-01T10:06:39.249Z,32.13
2019-05-01T10:09:12.162Z,30.97
2019-05-01T10:11:41.942Z,30.60
2019-05-01T10:14:12.051Z,31.83
2019-05-01T10:16:41.425Z,31.17
2019-05-01T10:19:10.666Z,29.73
2019-05-01T10:21:40.705Z,31.93
2019-05-01T10:24:10.644Z,30.60
2019-05-01T10:26:42.671Z,28.03
2019-05-01T10:29:49.556Z,30.13
2019-05-01T10:32:26.256Z,27.33
2019-05-01T10:34:59.937Z,29.63
2019-05-01T10:37:33.865Z,30.70
2019-05-01T10:40:01.126Z,29.37
2019-05-01T10:42:31.181Z,30.07
2019-05-01T10:45:01.165Z,30.97
2019-05-01T10:47:31.220Z,30.80
2019-05-01T10:50:01.061Z,28.20
2019-05-01T10:52:30.420Z,31.10
2019-05-01T10:54:59.652Z,30.10
2019-05-01T10:57:29.366Z,31.50
2019-05-01T10:59:58.728Z,31.13
2019-05-01T11:02:28.044Z,29.27
2019-05-01T11:04:57.813Z,31.93
2019-05-01T11:07:27.796Z,30.23
2019-05-01T11:09:57.621Z,31.10
2019-05-01T11:12:27.065Z,32.60
2019-05-01T11:14:56.301Z,30.03
2019-05-01T11:17:26.080Z,29.97
2019-05-01T11:19:55.437Z,28.17
2019-05-01T11:22:24.686Z,31.57
2019-05-01T11:24:54.685Z,31.07
2019-05-01T11:27:24.133Z,32.27
2019-05-01T11:29:53.820Z,30.70
2019-05-01T11:32:39.837Z,30.63
2019-05-01T11:35:40.364Z,29.30
2019-05-01T11:38:32.013Z,30.73
2019-05-01T11:41:04.732Z,34.47
2019-05-01T11:43:34.725Z,33.73
2019-05-01T11:46:04.265Z,31.20
2019-05-01T11:48:33.570Z,33.40
2019-05-01T11:51:02.833Z,32.73
2019-05-01T11:53:32.538Z,31.40
2019-05-01T11:56:02.381Z,31.03
2019-05-01T11:58:31.769Z,34.00
2019-05-01T12:01:02.951Z,34.33
2019-05-01T12:03:32.813Z,34.50
2019-05-01T12:06:02.967Z,32.47
2019-05-01T12:08:32.869Z,29.90
2019-05-01T12:11:03.161Z,31.57
2019-05-01T12:13:43.286Z,33.33
2019-05-01T12:16:11.076Z,32.70
2019-05-01T12:18:40.324Z,33.00
2019-05-01T12:21:09.582Z,31.83
2019-05-01T12:23:38.833Z,33.83
2019-05-01T12:26:08.068Z,32.97
2019-05-01T12:28:37.800Z,32.20
2019-05-01T12:31:07.180Z,31.13
2019-05-01T12:33:36.457Z,32.47
2019-05-01T12:36:07.757Z,30.00
2019-05-01T12:38:37.589Z,31.43
2019-05-01T12:41:25.500Z,32.50
2019-05-01T12:43:54.950Z,30.17
2019-05-01T12:46:43.020Z,31.53
2019-05-01T12:49:15.745Z,32.10
2019-05-01T12:51:46.154Z,30.37
2019-05-01T12:54:27.706Z,32.87
2019-05-01T12:56:57.349Z,30.77
2019-05-01T12:59:27.142Z,30.13
2019-05-01T13:01:57.062Z,31.20
2019-05-01T13:04:26.877Z,31.17
2019-05-01T13:06:59.065Z,29.50
2019-05-01T13:09:28.961Z,29.40
2019-05-01T13:11:58.869Z,30.37
2019-05-01T13:14:28.846Z,31.60
2019-05-01T13:16:58.468Z,30.10
2019-05-01T13:19:27.762Z,29.87
2019-05-01T13:21:57.551Z,28.33
2019-05-01T13:24:27.437Z,27.10
2019-05-01T13:27:15.038Z,26.83
2019-05-01T13:29:49.205Z,27.33
2019-05-01T13:32:32.826Z,27.93
2019-05-01T13:35:02.152Z,27.67
2019-05-01T13:37:32.025Z,26.90
2019-05-01T13:40:02.064Z,24.90
2019-05-01T13:42:32.056Z,26.83
2019-05-01T13:45:01.976Z,29.13
2019-05-01T13:47:31.368Z,28.27
2019-05-01T13:50:00.800Z,27.07
2019-05-01T13:52:30.130Z,28.00
2019-05-01T13:54:59.334Z,24.00
2019-05-01T13:57:29.357Z,26.97
2019-05-01T13:59:59.184Z,28.80
2019-05-01T14:02:28.557Z,30.07
2019-05-01T14:04:58.333Z,26.20
2019-05-01T14:07:28.229Z,25.77
2019-05-01T14:09:58.462Z,27.00
2019-05-01T14:12:28.368Z,27.37
2019-05-01T14:14:58.178Z,26.20
2019-05-01T14:17:27.562Z,24.50
2019-05-01T14:20:03.216Z,26.57
2019-05-01T14:22:47.877Z,25.03
2019-05-01T14:25:17.256Z,24.37
2019-05-01T14:27:46.597Z,28.87
2019-05-01T14:30:15.994Z,23.93
2019-05-01T14:32:45.244Z,24.93
2019-05-01T14:35:14.584Z,23.77
2019-05-01T14:37:44.364Z,24.30
2019-05-01T14:40:14.566Z,24.63
2019-05-01T14:42:44.485Z,22.60
2019-05-01T14:45:17.337Z,26.50
2019-05-01T14:47:47.240Z,23.80
2019-05-01T14:50:16.743Z,24.40
2019-05-01T14:52:46.428Z,24.97
2019-05-01T14:55:16.660Z,21.40
2019-05-01T14:57:46.717Z,22.33
2019-05-01T15:00:17.301Z,22.63
2019-05-01T15:02:47.182Z,21.13
2019-05-01T15:05:17.149Z,21.80
2019-05-01T15:07:46.573Z,22.80
2019-05-01T15:10:16.116Z,23.33
2019-05-01T15:12:47.008Z,21.67
2019-05-01T15:15:38.550Z,23.33
2019-05-01T15:18:25.599Z,23.03
2019-05-01T15:20:55.374Z,20.37
2019-05-01T15:23:24.861Z,20.53
2019-05-01T15:25:54.101Z,21.17
2019-05-01T15:28:23.868Z,20.97
2019-05-01T15:30:53.725Z,21.50
2019-05-01T15:33:23.561Z,20.70
2019-05-01T15:35:53.468Z,18.13
2019-05-01T15:38:23.285Z,16.93
2019-05-01T15:41:08.538Z,18.97
2019-05-01T15:43:42.640Z,19.43
2019-05-01T15:46:12.337Z,20.50
2019-05-01T15:48:42.181Z,17.63
2019-05-01T15:51:12.133Z,21.50
2019-05-01T15:53:41.949Z,19.60
2019-05-01T15:56:11.834Z,17.40
2019-05-01T15:58:41.639Z,19.40
2019-05-01T16:01:11.085Z,18.57
2019-05-01T16:03:40.845Z,18.53
2019-05-01T16:06:10.739Z,19.70
2019-05-01T16:08:40.854Z,20.27
2019-05-01T16:11:18.613Z,18.00
2019-05-01T16:13:48.527Z,20.43
2019-05-01T16:16:19.760Z,19.27
2019-05-01T16:18:49.065Z,19.50
2019-05-01T16:21:18.765Z,18.53
2019-05-01T16:23:48.732Z,19.93
2019-05-01T16:26:18.901Z,17.97
2019-05-01T16:28:48.713Z,20.47
2019-05-01T16:31:18.620Z,21.23
2019-05-01T16:33:48.509Z,20.63
2019-05-01T16:36:20.326Z,20.93
2019-05-01T16:39:07.437Z,21.90
2019-05-01T16:41:36.880Z,21.80
2019-05-01T16:44:06.186Z,21.27
2019-05-01T16:46:35.689Z,20.90
2019-05-01T16:49:06.061Z,20.53
2019-05-01T16:51:37.183Z,19.43
2019-05-01T16:54:07.353Z,17.47
2019-05-01T16:56:37.340Z,20.30
2019-05-01T16:59:07.344Z,21.07
2019-05-01T17:01:52.887Z,20.47
2019-05-01T17:04:29.808Z,21.77
2019-05-01T17:07:17.541Z,22.07
2019-05-01T17:10:12.556Z,22.67
2019-05-01T17:12:45.852Z,21.73
2019-05-01T17:15:18.544Z,22.60
2019-05-01T17:17:50.700Z,21.90
2019-05-01T17:20:20.750Z,22.90
2019-05-01T17:22:50.846Z,22.63
2019-05-01T17:25:21.073Z,23.67
2019-05-01T17:27:50.309Z,22.80
2019-05-01T17:30:23.836Z,23.83
2019-05-01T17:32:53.112Z,23.70
2019-05-01T17:35:23.020Z,25.00
2019-05-01T17:37:52.837Z,23.97
2019-05-01T17:40:22.192Z,23.87
2019-05-01T17:42:51.429Z,23.43
2019-05-01T17:45:21.214Z,21.83
2019-05-01T17:47:52.849Z,22.17
2019-05-01T17:50:22.849Z,21.90
2019-05-01T17:52:52.664Z,23.00
2019-05-01T17:55:22.575Z,23.13
2019-05-01T17:57:52.017Z,20.37
2019-05-01T18:00:34.237Z,22.70
2019-05-01T18:03:09.616Z,20.93
2019-05-01T18:06:05.520Z,21.77
2019-05-01T18:08:35.252Z,21.93
2019-05-01T18:11:04.720Z,19.70
2019-05-01T18:13:33.940Z,21.50
2019-05-01T18:16:04.389Z,21.40
2019-05-01T18:18:33.747Z,18.87
2019-05-01T18:21:03.607Z,18.87
2019-05-01T18:23:53.089Z,18.33
2019-05-01T18:26:38.831Z,18.70
2019-05-01T18:29:15.406Z,19.03
2019-05-01T18:31:44.823Z,18.90
2019-05-01T18:34:14.048Z,17.77
2019-05-01T18:36:49.212Z,20.23
2019-05-01T18:39:25.859Z,22.57
2019-05-01T18:41:58.188Z,21.63
2019-05-01T18:44:27.445Z,25.77
2019-05-01T18:46:56.786Z,22.43
2019-05-01T18:49:26.717Z,22.23
2019-05-01T18:51:56.608Z,20.83
2019-05-01T18:54:30.437Z,20.27
2019-05-01T18:56:58.306Z,18.17
2019-05-01T18:59:27.661Z,17.87
2019-05-01T19:01:57.357Z,18.07
2019-05-01T19:04:27.220Z,20.60
2019-05-01T19:06:57.201Z,20.03
2019-05-01T19:09:30.210Z,18.57
2019-05-01T19:11:57.775Z,24.43
2019-05-01T19:14:29.273Z,19.63
2019-05-01T19:17:00.016Z,19.10
2019-05-01T19:19:29.843Z,18.03
2019-05-01T19:21:59.721Z,17.47
2019-05-01T19:24:32.552Z,18.70
2019-05-01T19:27:01.223Z,19.83
2019-05-01T19:29:32.120Z,19.53
2019-05-01T19:32:02.892Z,18.17
2019-05-01T19:34:32.321Z,19.60
2019-05-01T19:37:02.072Z,18.87
2019-05-01T19:39:42.854Z,18.43
2019-05-01T19:42:07.376Z,19.77
2019-05-01T19:44:36.769Z,19.20
2019-05-01T19:47:07.920Z,19.70
2019-05-01T19:49:37.906Z,19.43
2019-05-01T19:52:07.997Z,19.30
2019-05-01T19:54:37.847Z,19.27
2019-05-01T19:57:07.272Z,19.03
2019-05-01T19:59:37.053Z,19.63
2019-05-01T20:02:07.588Z,19.27
2019-05-01T20:04:37.032Z,17.77
2019-05-01T20:07:10.574Z,18.77
2019-05-01T20:09:38.240Z,19.17
2019-05-01T20:12:08.141Z,18.37
2019-05-01T20:14:38.050Z,18.17
2019-05-01T20:17:09.978Z,19.43
2019-05-01T20:19:38.435Z,19.07
2019-05-01T20:22:07.675Z,17.53
2019-05-01T20:24:39.926Z,19.40
2019-05-01T20:27:08.445Z,19.00
2019-05-01T20:29:37.944Z,20.20
2019-05-01T20:32:07.201Z,19.40
2019-05-01T20:34:36.893Z,18.73
2019-05-01T20:37:06.249Z,19.93
2019-05-01T20:39:35.960Z,19.63
2019-05-01T20:42:06.127Z,20.17
2019-05-01T20:44:35.951Z,20.07
2019-05-01T20:47:05.748Z,19.77
2019-05-01T20:49:36.443Z,19.00
2019-05-01T20:52:06.641Z,20.60
2019-05-01T20:54:36.457Z,19.80
2019-05-01T20:57:20.797Z,20.27
2019-05-01T20:59:48.349Z,19.67
2019-05-01T21:02:18.387Z,22.13
2019-05-01T21:05:13.071Z,21.47
2019-05-01T21:07:47.277Z,19.70
2019-05-01T21:10:25.012Z,20.77
2019-05-01T21:12:50.672Z,21.23
2019-05-01T21:15:24.833Z,19.03
2019-05-01T21:17:51.036Z,20.13
2019-05-01T21:20:20.265Z,21.07
2019-05-01T21:22:49.589Z,21.43
2019-05-01T21:25:19.337Z,20.10
2019-05-01T21:27:49.246Z,22.80
2019-05-01T21:30:19.224Z,21.13
2019-05-01T21:32:48.569Z,21.23
2019-05-01T21:35:17.809Z,20.47
2019-05-01T21:37:47.521Z,20.63
2019-05-01T21:40:17.421Z,20.93
2019-05-01T21:42:51.510Z,20.47
2019-05-01T21:45:18.321Z,20.13
2019-05-01T21:47:47.570Z,31.15
2019-05-01T21:50:17.737Z,21.37
2019-05-01T21:52:48.564Z,22.27
2019-05-01T21:55:18.348Z,22.20
2019-05-01T21:57:50.034Z,22.60
2019-05-01T22:00:24.876Z,21.63
2019-05-01T22:02:52.512Z,23.27
2019-05-01T22:05:22.472Z,22.20
2019-05-01T22:07:52.020Z,22.07
2019-05-01T22:10:26.570Z,22.47
2019-05-01T22:12:52.952Z,21.03
2019-05-01T22:15:36.209Z,21.50
2019-05-01T22:18:14.941Z,22.60
2019-05-01T22:20:49.218Z,22.40
2019-05-01T22:23:22.039Z,20.93
2019-05-01T22:25:56.785Z,21.40
2019-05-01T22:28:42.100Z,20.77
2019-05-01T22:31:24.157Z,20.57
2019-05-01T22:33:58.697Z,23.40
2019-05-01T22:36:28.462Z,22.97
2019-05-01T22:39:02.285Z,21.33
2019-05-01T22:41:29.601Z,21.37
2019-05-01T22:43:59.449Z,24.23
2019-05-01T22:46:33.823Z,19.93
2019-05-01T22:49:01.581Z,21.57
2019-05-01T22:51:31.472Z,22.03
2019-05-01T22:54:01.344Z,21.67
2019-05-01T22:56:31.424Z,23.07
2019-05-01T22:59:01.243Z,20.77
2019-05-01T23:01:31.360Z,22.23
2019-05-01T23:04:04.400Z,22.00
2019-05-01T23:06:37.086Z,23.30
2019-05-01T23:09:07.827Z,22.10
2019-05-01T23:11:41.392Z,23.60
2019-05-01T23:14:10.827Z,22.50
2019-05-01T23:16:53.330Z,24.13
2019-05-01T23:19:27.854Z,22.70
2019-05-01T23:21:54.880Z,24.47
2019-05-01T23:24:24.133Z,21.47
2019-05-01T23:26:53.355Z,23.33
2019-05-01T23:29:23.686Z,23.40
2019-05-01T23:31:53.623Z,22.50
2019-05-01T23:34:26.307Z,22.27
2019-05-01T23:36:54.642Z,21.63
2019-05-01T23:39:24.335Z,21.80
2019-05-01T23:41:53.687Z,21.97
2019-05-01T23:44:22.932Z,23.07
2019-05-01T23:46:52.732Z,21.93
2019-05-01T23:49:22.650Z,23.07
2019-05-01T23:51:52.044Z,21.60
2019-05-01T23:54:21.277Z,23.13
2019-05-01T23:56:51.036Z,22.37
2019-05-01T23:59:20.560Z,23.50
